Terminal Aerodrome Forecast
Issued by NWS

Home | Current Version | Previous Version | Text Only | Print | Product List | Glossary On
Versions: 1 2 3 4 5 6 7 8 9 10 11 12 13 14 15 16 17 18
889
FTPA31 PHFO 251819 AAA
TAFSTU
TAF AMD
NSTU 251819Z 2518/2618 15011KT P6SM -SHRA VCTS SCT015CB BKN040
      BKN100
      TEMPO 2518/2520 6SM SHRA BKN015 OVC040
     FM260000 12011KT P6SM VCSH FEW015 SCT040 BKN100=

USA.gov is the U.S. government's official web portal to all federal, state and local government web resources and services.